»·PEaware :: N4065R 36S-KCEC

N4065R :: 36S-KCEC

FLIGHT INFORMATION

Flight Status: Arrived
Operator: Privately registered:
United States
More flights under this callsign
Pilot: Brandon D. (30736)
Aircraft: PIPER PA-32 SARATOGA
(PA32)
More flights by this aircraft type
Origin: 36S Happy Camp
United States
Destination: KCEC McNamara
United States
More flights between these airports :: More routes between these airports
Route: +WIPOG
File this flight plan on PilotEdge
Remarks: ILS rwy 12 via dme arc from wipog
Altitude:
(Current/Filed)
8,000ft
Speed:
(Current/Filed)
120kts
Departed: 01-Aug-20 08:19 PM
Arrived: 01-Aug-20 09:07 PM
Distance/Time
Traveled:
38nm/0:48
Distance/Time
To Go:
Arrived

Flight Plot

Page will automatically refresh every two minutes.

Flight plan parsing failed; only flown route is shown


Map Options




Map Legend


Flown Route
Filed Route
Departure Airport
Arrival Airport
Navaid (VOR, NDB)
Fix

Horizontal Profiles

Position Reports

Time Latitude Longitude Heading Altitude Ground
Speed
01-Aug-20 20:02 41.790501 -123.389603 99 1213ft 0kts
01-Aug-20 20:03 41.790501 -123.389603 99 1213ft 0kts
01-Aug-20 20:04 41.790501 -123.389603 99 1213ft 0kts
01-Aug-20 20:05 41.790501 -123.389603 99 1213ft 0kts
01-Aug-20 20:06 41.790501 -123.389603 99 1213ft 0kts
01-Aug-20 20:07 41.790501 -123.389603 99 1213ft 0kts
01-Aug-20 20:08 41.790501 -123.389603 99 1213ft 0kts
01-Aug-20 20:09 41.790501 -123.389603 99 1213ft 0kts
01-Aug-20 20:10 41.790501 -123.389603 99 1213ft 0kts
01-Aug-20 20:11 41.790501 -123.389603 99 1213ft 0kts
01-Aug-20 20:12 41.790501 -123.389603 99 1213ft 0kts
01-Aug-20 20:13 41.790501 -123.389603 99 1213ft 0kts
01-Aug-20 20:14 41.790501 -123.389603 99 1213ft 0kts
01-Aug-20 20:15 41.790501 -123.389603 99 1213ft 0kts
01-Aug-20 20:16 41.790501 -123.389603 99 1213ft 0kts
01-Aug-20 20:17 41.788725 -123.392657 242 1206ft 17kts
01-Aug-20 20:18 41.790383 -123.388822 56 1211ft 70kts
01-Aug-20 20:19 41.804787 -123.363961 351 1820ft 86kts
01-Aug-20 20:20 41.791443 -123.384127 225 2443ft 102kts
01-Aug-20 20:21 41.774558 -123.407214 133 3016ft 118kts
01-Aug-20 20:22 41.771452 -123.368488 85 3760ft 103kts
01-Aug-20 20:23 41.778601 -123.332388 8 4311ft 97kts
01-Aug-20 20:24 41.783139 -123.362315 266 4867ft 98kts
01-Aug-20 20:25 41.789116 -123.395282 325 5420ft 96kts
01-Aug-20 20:26 41.809255 -123.419308 311 5952ft 96kts
01-Aug-20 20:27 41.827185 -123.446269 305 6442ft 97kts
01-Aug-20 20:28 41.840032 -123.478082 293 6913ft 97kts
01-Aug-20 20:29 41.845770 -123.496902 290 7170ft 97kts
01-Aug-20 20:30 41.852276 -123.532200 277 7606ft 97kts
01-Aug-20 20:31 41.857839 -123.567721 290 8018ft 97kts
01-Aug-20 20:32 41.868768 -123.605716 289 7972ft 129kts
01-Aug-20 20:33 41.882365 -123.649666 293 7962ft 131kts
01-Aug-20 20:34 41.897149 -123.693539 292 7995ft 130kts
01-Aug-20 20:35 41.911813 -123.737013 292 8024ft 130kts
01-Aug-20 20:36 41.926562 -123.780719 292 8054ft 130kts
01-Aug-20 20:37 41.941356 -123.824973 292 8082ft 130kts
01-Aug-20 20:38 41.955243 -123.867033 292 8106ft 130kts
01-Aug-20 20:39 41.968449 -123.907511 292 8092ft 133kts
01-Aug-20 20:40 41.980133 -123.947897 292 7692ft 144kts
01-Aug-20 20:41 41.993773 -123.988329 290 7227ft 158kts
01-Aug-20 20:42 42.006286 -124.025798 290 7031ft 154kts
01-Aug-20 20:43 42.016593 -124.056505 291 7021ft 151kts
01-Aug-20 20:45 42.026703 -124.086393 292 7065ft 146kts
01-Aug-20 20:46 42.037214 -124.115326 292 7097ft 145kts
01-Aug-20 20:47 42.048298 -124.142247 308 7125ft 147kts
01-Aug-20 20:48 42.059154 -124.170178 278 7125ft 142kts
01-Aug-20 20:49 42.063355 -124.204306 264 7166ft 140kts
01-Aug-20 20:50 42.050385 -124.226267 180 7001ft 140kts
01-Aug-20 20:51 42.018183 -124.227077 188 7110ft 130kts
01-Aug-20 20:52 41.983166 -124.231038 184 7147ft 132kts
01-Aug-20 20:53 41.958918 -124.242715 251 7023ft 145kts
01-Aug-20 20:54 41.962015 -124.292299 261 7176ft 139kts
01-Aug-20 20:55 41.951652 -124.335696 235 6659ft 91kts
01-Aug-20 20:56 41.939327 -124.367876 235 4010ft 95kts
01-Aug-20 20:57 41.928831 -124.397768 218 2327ft 91kts
01-Aug-20 20:58 41.912430 -124.411572 176 2226ft 84kts
01-Aug-20 20:59 41.897775 -124.396914 133 2209ft 86kts
01-Aug-20 21:00 41.884683 -124.378150 138 2249ft 87kts
01-Aug-20 21:01 41.870665 -124.361464 138 2282ft 87kts
01-Aug-20 21:02 41.856155 -124.343512 129 1789ft 90kts
01-Aug-20 21:02 41.844267 -124.326209 127 1638ft 85kts
01-Aug-20 21:04 41.830407 -124.304671 123 1384ft 91kts
01-Aug-20 21:04 41.818079 -124.289620 135 1186ft 92kts
01-Aug-20 21:05 41.793510 -124.253246 134 341ft 92kts
01-Aug-20 21:07 41.777383 -124.230765 123 53ft 33kts
01-Aug-20 21:07 41.775453 -124.229820 272 53ft 0kts

Navigation Log

Ident Type
Flight plan parsing failed, navigation log unavailable